createdAt,value
2022-10-13T00:00:47.319Z,101835.94
2022-10-13T00:03:14.371Z,101841.94
2022-10-13T00:05:46.516Z,101842.84
2022-10-13T00:08:15.422Z,101840.22
2022-10-13T00:10:43.934Z,101829.75
2022-10-13T00:13:11.562Z,101826.22
2022-10-13T00:15:40.062Z,101827.09
2022-10-13T00:18:06.786Z,101823.59
2022-10-13T00:20:33.326Z,101827.09
2022-10-13T00:22:59.692Z,101825.53
2022-10-13T00:25:26.126Z,101836.06
2022-10-13T00:27:52.492Z,101831.66
2022-10-13T00:30:20.110Z,101825.56
2022-10-13T00:32:46.745Z,101824.63
2022-10-13T00:35:13.572Z,101818.47
2022-10-13T00:37:39.904Z,101827.25
2022-10-13T00:40:07.560Z,101826.41
2022-10-13T00:42:34.008Z,101819.50
2022-10-13T00:45:21.434Z,101819.50
2022-10-13T00:47:51.855Z,101814.34
2022-10-13T00:50:23.882Z,101810.88
2022-10-13T00:52:56.092Z,101813.44
2022-10-13T00:55:28.511Z,101805.78
2022-10-13T00:57:56.018Z,101802.47
2022-10-13T01:00:30.219Z,101810.38
2022-10-13T01:02:57.282Z,101806.91
2022-10-13T01:05:24.820Z,101802.53
2022-10-13T01:07:56.686Z,101799.06
2022-10-13T01:10:48.781Z,101799.22
2022-10-13T01:13:30.735Z,101798.44
2022-10-13T01:16:17.362Z,101800.25
2022-10-13T01:19:07.827Z,101799.59
2022-10-13T01:21:47.381Z,101784.78
2022-10-13T01:24:41.660Z,101795.25
2022-10-13T01:27:21.724Z,101797.88
2022-10-13T01:30:03.440Z,101794.34
2022-10-13T01:32:58.602Z,101789.25
2022-10-13T01:35:39.202Z,101783.97
2022-10-13T01:38:13.485Z,101784.06
2022-10-13T01:40:47.932Z,101783.28
2022-10-13T01:43:22.215Z,101786.81
2022-10-13T01:46:02.375Z,101779.00
2022-10-13T01:48:29.632Z,101779.03
2022-10-13T01:50:59.006Z,101773.91
2022-10-13T01:53:26.858Z,101770.53
2022-10-13T01:55:57.066Z,101768.00
2022-10-13T01:58:27.285Z,101775.03
2022-10-13T02:01:31.313Z,101766.34
2022-10-13T02:04:10.025Z,101760.16
2022-10-13T02:06:45.431Z,101755.00
2022-10-13T02:09:28.171Z,101761.09
2022-10-13T02:12:02.279Z,101759.38
2022-10-13T02:14:36.168Z,101758.53
2022-10-13T02:17:04.930Z,101761.16
2022-10-13T02:19:36.142Z,101760.31
2022-10-13T02:22:04.049Z,101758.53
2022-10-13T02:24:30.747Z,101749.78
2022-10-13T02:26:57.586Z,101752.41
2022-10-13T02:29:24.248Z,101744.53
2022-10-13T02:31:50.753Z,101749.81
2022-10-13T02:34:17.157Z,101746.28
2022-10-13T02:36:46.299Z,101743.63
2022-10-13T02:39:12.927Z,101731.38
2022-10-13T02:41:39.544Z,101735.75
2022-10-13T02:44:06.805Z,101737.53
2022-10-13T02:46:34.284Z,101734.91
2022-10-13T02:49:00.906Z,101730.56
2022-10-13T02:51:28.448Z,101734.06
2022-10-13T02:53:54.880Z,101733.22
2022-10-13T02:56:21.213Z,101734.06
2022-10-13T02:58:47.677Z,101729.69
2022-10-13T03:01:15.342Z,101725.34
2022-10-13T03:03:42.307Z,101731.50
2022-10-13T03:06:08.796Z,101728.94
2022-10-13T03:08:36.312Z,101728.09
2022-10-13T03:11:03.397Z,101721.06
2022-10-13T03:13:29.944Z,101718.38
2022-10-13T03:16:03.382Z,101712.19
2022-10-13T03:18:30.089Z,101714.78
2022-10-13T03:21:01.806Z,101711.38
2022-10-13T03:23:28.502Z,101717.47
2022-10-13T03:25:55.395Z,101716.56
2022-10-13T03:28:22.639Z,101710.53
2022-10-13T03:30:50.883Z,101710.53
2022-10-13T03:33:17.424Z,101711.53
2022-10-13T03:35:44.156Z,101709.00
2022-10-13T03:38:11.145Z,101710.78
2022-10-13T03:40:38.581Z,101717.78
2022-10-13T03:43:05.000Z,101716.97
2022-10-13T03:45:31.554Z,101707.38
2022-10-13T03:47:58.469Z,101715.22
2022-10-13T03:50:26.129Z,101710.84
2022-10-13T03:52:54.188Z,101716.94
2022-10-13T03:55:20.752Z,101701.13
2022-10-13T03:57:47.124Z,101706.31
2022-10-13T04:00:14.300Z,101700.16
2022-10-13T04:02:41.791Z,101704.56
2022-10-13T04:05:08.556Z,101709.84
2022-10-13T04:07:34.993Z,101709.91
2022-10-13T04:10:10.284Z,101709.00
2022-10-13T04:12:38.373Z,101702.13
2022-10-13T04:15:05.144Z,101711.69
2022-10-13T04:17:31.478Z,101705.53
2022-10-13T04:19:57.890Z,101701.06
2022-10-13T04:22:24.212Z,101700.09
2022-10-13T04:24:50.615Z,101699.22
2022-10-13T04:27:19.029Z,101700.88
2022-10-13T04:29:45.468Z,101699.06
2022-10-13T04:32:11.904Z,101691.19
2022-10-13T04:34:38.442Z,101694.69
2022-10-13T04:37:04.775Z,101693.81
2022-10-13T04:39:31.252Z,101699.09
2022-10-13T04:41:57.672Z,101690.41
2022-10-13T04:44:23.989Z,101681.72
2022-10-13T04:46:50.352Z,101681.72
2022-10-13T04:49:17.133Z,101691.34
2022-10-13T04:51:43.563Z,101685.25
2022-10-13T04:54:10.409Z,101692.25
2022-10-13T04:56:36.809Z,101689.72
2022-10-13T04:59:05.676Z,101697.66
2022-10-13T05:01:33.003Z,101680.19
2022-10-13T05:04:01.814Z,101687.16
2022-10-13T05:06:48.593Z,101685.47
2022-10-13T05:09:23.505Z,101680.19
2022-10-13T05:11:49.855Z,101679.38
2022-10-13T05:14:16.248Z,101677.66
2022-10-13T05:16:42.680Z,101675.03
2022-10-13T05:19:09.030Z,101671.53
2022-10-13T05:21:35.482Z,101675.97
2022-10-13T05:24:02.651Z,101673.34
2022-10-13T05:26:31.897Z,101660.22
2022-10-13T05:28:59.717Z,101666.28
2022-10-13T05:31:30.859Z,101652.31
2022-10-13T05:33:59.844Z,101656.63
2022-10-13T05:36:32.334Z,101653.19
2022-10-13T05:39:01.382Z,101654.03
2022-10-13T05:41:28.977Z,101648.75
2022-10-13T05:44:04.607Z,101650.50
2022-10-13T05:46:31.214Z,101654.91
2022-10-13T05:48:57.558Z,101652.41
2022-10-13T05:51:30.024Z,101647.19
2022-10-13T05:54:25.532Z,101649.94
2022-10-13T05:56:57.271Z,101640.22
2022-10-13T05:59:29.844Z,101629.00
2022-10-13T06:01:56.433Z,101618.47
2022-10-13T06:04:37.440Z,101621.16
2022-10-13T06:07:04.091Z,101628.09
2022-10-13T06:09:37.867Z,101613.38
2022-10-13T06:12:05.471Z,101612.41
2022-10-13T06:14:31.945Z,101612.31
2022-10-13T06:16:58.337Z,101617.56
2022-10-13T06:19:24.847Z,101611.44
2022-10-13T06:21:51.353Z,101614.00
2022-10-13T06:24:17.860Z,101614.13
2022-10-13T06:26:44.412Z,101613.44
2022-10-13T06:29:10.847Z,101623.88
2022-10-13T06:31:37.656Z,101617.56
2022-10-13T06:34:04.114Z,101620.00
2022-10-13T06:36:31.428Z,101614.84
2022-10-13T06:38:57.847Z,101617.56
2022-10-13T06:41:24.284Z,101624.56
2022-10-13T06:43:50.800Z,101618.78
2022-10-13T06:46:17.350Z,101629.34
2022-10-13T06:48:43.820Z,101632.81
2022-10-13T06:51:12.204Z,101632.06
2022-10-13T06:53:38.658Z,101642.69
2022-10-13T06:56:06.805Z,101630.31
2022-10-13T06:58:35.165Z,101645.38
2022-10-13T07:01:01.732Z,101633.13
2022-10-13T07:03:28.307Z,101631.88
2022-10-13T07:05:54.883Z,101641.31
2022-10-13T07:08:21.343Z,101634.06
2022-10-13T07:10:48.717Z,101622.56
2022-10-13T07:13:15.263Z,101624.06
2022-10-13T07:15:41.636Z,101618.56
2022-10-13T07:18:08.619Z,101613.88
2022-10-13T07:20:35.709Z,101614.50
2022-10-13T07:23:02.475Z,101611.84
2022-10-13T07:25:28.930Z,101620.66
2022-10-13T07:27:55.492Z,101611.97
2022-10-13T07:30:22.223Z,101612.09
2022-10-13T07:32:48.796Z,101616.59
2022-10-13T07:35:15.493Z,101618.47
2022-10-13T07:37:42.053Z,101613.88
2022-10-13T07:40:09.053Z,101610.84
2022-10-13T07:42:35.886Z,101610.56
2022-10-13T07:45:02.569Z,101591.94
2022-10-13T07:47:29.507Z,101600.59
2022-10-13T07:49:55.928Z,101597.25
2022-10-13T07:52:23.144Z,101586.50
2022-10-13T07:54:50.735Z,101589.97
2022-10-13T07:57:17.667Z,101603.41
2022-10-13T07:59:44.429Z,101614.72
2022-10-13T08:02:12.950Z,101610.34
2022-10-13T08:04:39.356Z,101610.56
2022-10-13T08:07:06.566Z,101608.13
2022-10-13T08:09:33.870Z,101608.25
2022-10-13T08:12:01.822Z,101596.75
2022-10-13T08:14:29.665Z,101607.00
2022-10-13T08:16:57.163Z,101605.34
2022-10-13T08:19:26.208Z,101604.25
2022-10-13T08:21:58.088Z,101603.34
2022-10-13T08:24:26.201Z,101590.09
2022-10-13T08:26:52.702Z,101582.91
2022-10-13T08:29:23.894Z,101583.19
2022-10-13T08:31:53.082Z,101587.75
2022-10-13T08:34:20.540Z,101585.16
2022-10-13T08:36:47.301Z,101583.06
2022-10-13T08:39:14.189Z,101578.47
2022-10-13T08:41:45.560Z,101580.22
2022-10-13T08:45:06.320Z,101577.38
2022-10-13T08:47:38.262Z,101580.81
2022-10-13T08:50:21.407Z,101578.88
2022-10-13T08:52:58.286Z,101586.66
2022-10-13T08:55:35.112Z,101577.00
2022-10-13T08:58:06.293Z,101580.41
2022-10-13T09:00:32.667Z,101575.66
2022-10-13T09:03:19.476Z,101588.84
2022-10-13T09:06:13.115Z,101590.00
2022-10-13T09:08:44.009Z,101588.31
2022-10-13T09:11:12.454Z,101580.84
2022-10-13T09:13:38.841Z,101572.38
2022-10-13T09:16:05.631Z,101569.50
2022-10-13T09:18:33.545Z,101563.53
2022-10-13T09:21:15.499Z,101569.66
2022-10-13T09:23:42.174Z,101564.34
2022-10-13T09:26:16.256Z,101556.06
2022-10-13T09:28:43.092Z,101551.09
2022-10-13T09:31:16.954Z,101561.38
2022-10-13T09:33:44.561Z,101563.03
2022-10-13T09:36:13.686Z,101560.00
2022-10-13T09:38:42.946Z,101558.16
2022-10-13T09:41:09.248Z,101565.91
2022-10-13T09:43:45.561Z,101569.06
2022-10-13T09:46:26.669Z,101575.81
2022-10-13T09:49:03.515Z,101567.00
2022-10-13T09:51:32.537Z,101568.31
2022-10-13T09:54:02.212Z,101568.97
2022-10-13T09:56:38.235Z,101559.81
2022-10-13T09:59:31.102Z,101562.50
2022-10-13T10:02:00.052Z,101546.97
2022-10-13T10:04:38.320Z,101542.75
2022-10-13T10:07:20.820Z,101535.75
2022-10-13T10:09:57.455Z,101526.97
2022-10-13T10:12:28.663Z,101533.13
2022-10-13T10:14:55.481Z,101533.03
2022-10-13T10:17:55.654Z,101536.41
2022-10-13T10:20:33.796Z,101539.97
2022-10-13T10:23:11.128Z,101526.41
2022-10-13T10:26:01.269Z,101537.06
2022-10-13T10:28:33.796Z,101529.13
2022-10-13T10:31:31.248Z,101532.41
2022-10-13T10:34:15.394Z,101531.38
2022-10-13T10:36:53.212Z,101530.13
2022-10-13T10:39:27.869Z,101527.25
2022-10-13T10:42:05.374Z,101520.06
2022-10-13T10:44:41.069Z,101511.88
2022-10-13T10:47:26.023Z,101520.28
2022-10-13T10:50:05.793Z,101514.59
2022-10-13T10:53:06.628Z,101509.22
2022-10-13T10:55:48.587Z,101505.06
2022-10-13T10:58:18.130Z,101502.56
2022-10-13T11:01:14.433Z,101496.22
2022-10-13T11:03:57.891Z,101482.03
2022-10-13T11:06:34.051Z,101481.28
2022-10-13T11:09:00.984Z,101472.16
2022-10-13T11:11:33.372Z,101470.09
2022-10-13T11:14:06.582Z,101473.28
2022-10-13T11:16:41.072Z,101462.34
2022-10-13T11:19:34.286Z,101441.84
2022-10-13T11:22:00.671Z,101441.50
2022-10-13T11:24:39.338Z,101430.88
2022-10-13T11:27:08.963Z,101414.72
2022-10-13T11:29:44.373Z,101420.13
2022-10-13T11:32:26.157Z,101416.63
2022-10-13T11:35:00.513Z,101423.75
2022-10-13T11:37:55.839Z,101424.31
2022-10-13T11:40:56.457Z,101420.91
2022-10-13T11:43:44.706Z,101423.25
2022-10-13T11:46:22.761Z,101415.66
2022-10-13T11:49:40.898Z,101424.28
2022-10-13T11:52:22.800Z,101412.13
2022-10-13T11:55:12.681Z,101403.50
2022-10-13T11:57:41.372Z,101397.00
2022-10-13T12:00:18.907Z,101396.34
2022-10-13T12:02:51.345Z,101398.91
2022-10-13T12:05:24.436Z,101403.81
2022-10-13T12:07:53.274Z,101404.34
2022-10-13T12:10:26.991Z,101402.00
2022-10-13T12:12:53.456Z,101409.31
2022-10-13T12:15:43.169Z,101405.38
2022-10-13T12:18:28.232Z,101410.69
2022-10-13T12:20:56.641Z,101405.91
2022-10-13T12:23:23.346Z,101409.41
2022-10-13T12:25:57.151Z,101403.56
2022-10-13T12:28:25.758Z,101407.72
2022-10-13T12:30:58.795Z,101390.66
2022-10-13T12:33:35.414Z,101390.81
2022-10-13T12:36:18.826Z,101393.34
2022-10-13T12:38:54.080Z,101403.72
2022-10-13T12:41:33.241Z,101388.94
2022-10-13T12:44:02.537Z,101395.94
2022-10-13T12:46:43.605Z,101400.97
2022-10-13T12:49:14.834Z,101398.03
2022-10-13T12:51:43.232Z,101389.69
2022-10-13T12:54:20.828Z,101398.63
2022-10-13T12:56:48.213Z,101396.84
2022-10-13T12:59:18.084Z,101391.34
2022-10-13T13:01:54.618Z,101386.41
2022-10-13T13:04:21.096Z,101387.19
2022-10-13T13:06:56.441Z,101388.34
2022-10-13T13:09:38.716Z,101391.09
2022-10-13T13:12:08.171Z,101390.75
2022-10-13T13:14:42.157Z,101403.78
2022-10-13T13:17:12.935Z,101387.00
2022-10-13T13:19:41.772Z,101394.28
2022-10-13T13:22:10.196Z,101387.66
2022-10-13T13:24:40.214Z,101399.00
2022-10-13T13:27:18.502Z,101387.53
2022-10-13T13:29:45.593Z,101389.88
2022-10-13T13:32:14.064Z,101381.16
2022-10-13T13:34:40.578Z,101385.66
2022-10-13T13:37:14.022Z,101385.94
2022-10-13T13:39:40.863Z,101392.88
2022-10-13T13:42:13.513Z,101382.66
2022-10-13T13:44:39.974Z,101387.81
2022-10-13T13:47:15.600Z,101382.09
2022-10-13T13:49:46.017Z,101384.03
2022-10-13T13:52:12.454Z,101387.03
2022-10-13T13:54:38.854Z,101388.97
2022-10-13T13:57:05.394Z,101390.59
2022-10-13T13:59:31.928Z,101390.75
2022-10-13T14:01:58.693Z,101381.66
2022-10-13T14:04:26.039Z,101380.44
2022-10-13T14:06:52.911Z,101394.69
2022-10-13T14:09:19.404Z,101386.09
2022-10-13T14:11:45.839Z,101389.59
2022-10-13T14:14:12.277Z,101384.09
2022-10-13T14:16:38.720Z,101382.09
2022-10-13T14:19:05.517Z,101381.09
2022-10-13T14:21:32.031Z,101375.16
2022-10-13T14:23:59.470Z,101374.38
2022-10-13T14:26:26.164Z,101369.88
2022-10-13T14:28:52.721Z,101377.44
2022-10-13T14:31:19.151Z,101371.22
2022-10-13T14:33:48.746Z,101360.59
2022-10-13T14:36:18.488Z,101364.00
2022-10-13T14:38:44.898Z,101366.41
2022-10-13T14:41:11.674Z,101371.22
2022-10-13T14:43:38.283Z,101363.19
2022-10-13T14:46:06.530Z,101369.41
2022-10-13T14:48:34.424Z,101367.56
2022-10-13T14:51:09.228Z,101371.91
2022-10-13T14:53:37.894Z,101367.56
2022-10-13T14:56:19.324Z,101366.13
2022-10-13T14:58:50.768Z,101366.22
2022-10-13T15:01:18.015Z,101361.28
2022-10-13T15:03:44.875Z,101365.63
2022-10-13T15:06:16.413Z,101356.00
2022-10-13T15:08:43.894Z,101356.56
2022-10-13T15:11:11.492Z,101356.47
2022-10-13T15:13:38.624Z,101360.84
2022-10-13T15:16:06.189Z,101355.47
2022-10-13T15:18:35.965Z,101354.28
2022-10-13T15:21:02.814Z,101355.44
2022-10-13T15:23:29.344Z,101347.56
2022-10-13T15:26:00.987Z,101349.44
2022-10-13T15:28:36.463Z,101347.94
2022-10-13T15:31:02.958Z,101347.22
2022-10-13T15:33:29.655Z,101354.22
2022-10-13T15:35:56.345Z,101344.63
2022-10-13T15:38:23.475Z,101347.44
2022-10-13T15:40:50.057Z,101354.59
2022-10-13T15:43:17.308Z,101352.44
2022-10-13T15:45:53.380Z,101351.03
2022-10-13T15:48:19.815Z,101349.47
2022-10-13T15:50:46.232Z,101354.91
2022-10-13T15:53:13.360Z,101363.69
2022-10-13T15:55:40.469Z,101360.19
2022-10-13T15:58:11.358Z,101356.69
2022-10-13T16:00:41.137Z,101355.88
2022-10-13T16:03:12.216Z,101356.75
2022-10-13T16:05:40.596Z,101362.34
2022-10-13T16:08:06.961Z,101352.53
2022-10-13T16:10:33.376Z,101353.41
2022-10-13T16:13:00.265Z,101353.16
2022-10-13T16:15:27.286Z,101358.53
2022-10-13T16:17:53.790Z,101354.94
2022-10-13T16:20:21.389Z,101356.81
2022-10-13T16:22:47.959Z,101354.09
2022-10-13T16:25:14.372Z,101345.03
2022-10-13T16:27:44.220Z,101349.41
2022-10-13T16:30:11.817Z,101357.16
2022-10-13T16:32:39.528Z,101351.78
2022-10-13T16:35:07.075Z,101357.09
2022-10-13T16:37:33.574Z,101353.72
2022-10-13T16:39:59.936Z,101348.41
2022-10-13T16:42:26.559Z,101351.09
2022-10-13T16:44:53.099Z,101353.13
2022-10-13T16:47:19.927Z,101354.94
2022-10-13T16:49:46.990Z,101351.25
2022-10-13T16:52:14.730Z,101355.44
2022-10-13T16:54:43.570Z,101350.16
2022-10-13T16:57:09.956Z,101351.97
2022-10-13T16:59:36.649Z,101349.00
2022-10-13T17:02:03.092Z,101349.66
2022-10-13T17:04:30.864Z,101344.09
2022-10-13T17:06:57.336Z,101345.72
2022-10-13T17:09:23.688Z,101348.28
2022-10-13T17:11:50.070Z,101342.91
2022-10-13T17:14:16.414Z,101343.72
2022-10-13T17:16:44.074Z,101348.94
2022-10-13T17:19:10.533Z,101351.59
2022-10-13T17:21:37.159Z,101351.66
2022-10-13T17:24:05.635Z,101357.00
2022-10-13T17:26:32.819Z,101358.44
2022-10-13T17:28:59.307Z,101357.75
2022-10-13T17:31:25.802Z,101349.72
2022-10-13T17:33:53.063Z,101352.38
2022-10-13T17:36:28.154Z,101360.38
2022-10-13T17:38:56.205Z,101355.09
2022-10-13T17:41:24.302Z,101349.81
2022-10-13T17:43:51.614Z,101354.59
2022-10-13T17:46:41.865Z,101361.63
2022-10-13T17:49:11.143Z,101366.03
2022-10-13T17:51:38.155Z,101368.72
2022-10-13T17:54:06.837Z,101374.13
2022-10-13T17:56:35.684Z,101364.47
2022-10-13T17:59:02.464Z,101367.97
2022-10-13T18:01:31.771Z,101369.84
2022-10-13T18:04:08.297Z,101366.47
2022-10-13T18:06:39.747Z,101362.97
2022-10-13T18:09:09.177Z,101366.53
2022-10-13T18:11:36.204Z,101371.13
2022-10-13T18:14:04.311Z,101375.28
2022-10-13T18:16:35.127Z,101374.59
2022-10-13T18:19:04.097Z,101370.38
2022-10-13T18:21:31.223Z,101369.31
2022-10-13T18:24:02.903Z,101365.63
2022-10-13T18:26:32.064Z,101365.47
2022-10-13T18:28:58.709Z,101369.75
2022-10-13T18:31:30.501Z,101366.31
2022-10-13T18:34:03.895Z,101359.19
2022-10-13T18:36:33.048Z,101366.91
2022-10-13T18:39:11.044Z,101369.50
2022-10-13T18:41:39.607Z,101366.91
2022-10-13T18:44:07.114Z,101369.81
2022-10-13T18:46:34.578Z,101372.63
2022-10-13T18:49:01.207Z,101373.31
2022-10-13T18:51:33.385Z,101369.75
2022-10-13T18:54:02.398Z,101366.91
2022-10-13T18:56:30.465Z,101363.34
2022-10-13T18:58:59.841Z,101371.19
2022-10-13T19:01:28.761Z,101363.28
2022-10-13T19:03:55.856Z,101359.78
2022-10-13T19:06:26.603Z,101366.84
2022-10-13T19:09:02.068Z,101367.84
2022-10-13T19:11:29.507Z,101371.34
2022-10-13T19:13:57.053Z,101374.91
2022-10-13T19:16:25.186Z,101372.31
2022-10-13T19:18:52.324Z,101367.97
2022-10-13T19:21:20.150Z,101367.13
2022-10-13T19:23:47.154Z,101370.69
2022-10-13T19:26:25.135Z,101368.97
2022-10-13T19:29:01.591Z,101370.81
2022-10-13T19:31:30.142Z,101376.03
2022-10-13T19:33:59.320Z,101369.81
2022-10-13T19:36:32.968Z,101370.75
2022-10-13T19:39:05.015Z,101367.25
2022-10-13T19:41:32.208Z,101371.75
2022-10-13T19:43:59.502Z,101372.72
2022-10-13T19:46:35.864Z,101369.22
2022-10-13T19:49:03.545Z,101378.09
2022-10-13T19:51:29.966Z,101367.59
2022-10-13T19:53:56.488Z,101369.44
2022-10-13T19:56:31.502Z,101373.19
2022-10-13T19:58:58.695Z,101365.59
2022-10-13T20:01:25.144Z,101372.94
2022-10-13T20:03:51.580Z,101368.91
2022-10-13T20:06:19.294Z,101366.72
2022-10-13T20:08:46.186Z,101367.19
2022-10-13T20:11:20.699Z,101363.41
2022-10-13T20:13:49.669Z,101369.84
2022-10-13T20:16:18.610Z,101365.75
2022-10-13T20:18:45.352Z,101371.09
2022-10-13T20:21:12.852Z,101373.66
2022-10-13T20:23:40.829Z,101379.00
2022-10-13T20:26:09.589Z,101374.81
2022-10-13T20:28:42.733Z,101381.06
2022-10-13T20:31:12.791Z,101380.22
2022-10-13T20:33:39.787Z,101373.09
2022-10-13T20:36:09.157Z,101378.16
2022-10-13T20:38:35.994Z,101383.44
2022-10-13T20:41:28.316Z,101378.25
2022-10-13T20:43:57.069Z,101380.94
2022-10-13T20:46:23.980Z,101386.28
2022-10-13T20:49:09.906Z,101387.28
2022-10-13T20:51:37.458Z,101382.00
2022-10-13T20:54:04.078Z,101374.09
2022-10-13T20:56:30.600Z,101375.91
2022-10-13T20:59:02.188Z,101380.44
2022-10-13T21:01:28.688Z,101373.34
2022-10-13T21:03:55.640Z,101377.66
2022-10-13T21:06:27.356Z,101371.44
2022-10-13T21:09:00.053Z,101373.94
2022-10-13T21:11:26.923Z,101373.53
2022-10-13T21:13:53.553Z,101374.88
2022-10-13T21:16:28.901Z,101376.69
2022-10-13T21:18:57.204Z,101385.13
2022-10-13T21:21:28.637Z,101371.47
2022-10-13T21:23:57.580Z,101377.69
2022-10-13T21:26:26.138Z,101367.13
2022-10-13T21:28:53.041Z,101370.59
2022-10-13T21:31:22.170Z,101381.72
2022-10-13T21:33:49.627Z,101383.66
2022-10-13T21:36:19.431Z,101378.44
2022-10-13T21:38:47.078Z,101384.63
2022-10-13T21:41:14.900Z,101377.59
2022-10-13T21:43:42.412Z,101377.66
2022-10-13T21:46:16.834Z,101372.66
2022-10-13T21:48:44.392Z,101380.75
2022-10-13T21:51:22.407Z,101372.16
2022-10-13T21:53:51.176Z,101389.88
2022-10-13T21:56:18.541Z,101385.31
2022-10-13T21:58:45.656Z,101379.09
2022-10-13T22:01:12.204Z,101380.69
2022-10-13T22:03:39.249Z,101378.97
2022-10-13T22:06:08.152Z,101376.41
2022-10-13T22:08:42.582Z,101366.78
2022-10-13T22:11:14.370Z,101367.50
2022-10-13T22:13:40.876Z,101375.47
2022-10-13T22:16:11.495Z,101373.13
2022-10-13T22:18:40.943Z,101370.38
2022-10-13T22:21:11.029Z,101367.34
2022-10-13T22:23:37.479Z,101367.13
2022-10-13T22:26:04.086Z,101365.31
2022-10-13T22:28:36.076Z,101366.97
2022-10-13T22:31:09.368Z,101364.34
2022-10-13T22:33:37.200Z,101359.53
2022-10-13T22:36:11.762Z,101351.97
2022-10-13T22:38:38.290Z,101358.09
2022-10-13T22:41:07.752Z,101358.88
2022-10-13T22:43:34.864Z,101361.28
2022-10-13T22:46:14.363Z,101362.72
2022-10-13T22:48:41.786Z,101359.06
2022-10-13T22:51:13.281Z,101356.47
2022-10-13T22:53:39.839Z,101359.28
2022-10-13T22:56:14.163Z,101356.00
2022-10-13T22:58:40.752Z,101358.72
2022-10-13T23:01:09.562Z,101357.88
2022-10-13T23:03:37.114Z,101352.47
2022-10-13T23:06:04.384Z,101355.16
2022-10-13T23:08:30.958Z,101349.53
2022-10-13T23:10:57.865Z,101345.72
2022-10-13T23:13:24.739Z,101342.06
2022-10-13T23:15:52.396Z,101345.44
2022-10-13T23:18:18.921Z,101340.53
2022-10-13T23:20:45.267Z,101332.69
2022-10-13T23:23:13.864Z,101329.25
2022-10-13T23:25:40.241Z,101330.19
2022-10-13T23:28:06.608Z,101319.56
2022-10-13T23:30:32.964Z,101330.97
2022-10-13T23:32:59.296Z,101327.47
2022-10-13T23:35:25.804Z,101337.19
2022-10-13T23:37:52.856Z,101332.13
2022-10-13T23:40:19.919Z,101322.44
2022-10-13T23:42:46.436Z,101331.94
2022-10-13T23:45:12.869Z,101327.28
2022-10-13T23:47:40.236Z,101316.47
2022-10-13T23:50:06.807Z,101321.59
2022-10-13T23:52:34.024Z,101326.09
2022-10-13T23:55:00.415Z,101326.91
2022-10-13T23:57:29.689Z,101318.97
2022-10-13T23:59:56.094Z,101322.44
